createdAt,value
2018-11-28T01:42:22.266Z,28.93
2018-11-28T01:45:26.845Z,30.40
2018-11-28T01:48:31.355Z,33.37
2018-11-28T01:51:35.842Z,28.50
2018-11-28T01:54:40.408Z,28.37
2018-11-28T01:57:45.007Z,26.93
2018-11-28T02:00:49.542Z,26.80
2018-11-28T02:03:54.114Z,30.33
2018-11-28T02:06:58.646Z,26.73
2018-11-28T02:10:03.256Z,28.00
2018-11-28T02:13:07.863Z,27.87
2018-11-28T02:16:12.558Z,32.07
2018-11-28T02:19:17.091Z,27.87
2018-11-28T02:22:21.640Z,32.73
2018-11-28T02:25:26.240Z,28.63
2018-11-28T02:28:30.777Z,29.00
2018-11-28T02:31:35.290Z,31.10
2018-11-28T02:34:40.000Z,28.70
2018-11-28T02:37:44.614Z,30.73
2018-11-28T02:40:49.186Z,27.97
2018-11-28T02:43:53.700Z,31.67
2018-11-28T02:46:58.502Z,30.10
2018-11-28T02:50:03.182Z,30.13
2018-11-28T02:53:07.741Z,32.50
2018-11-28T02:56:12.253Z,28.17
2018-11-28T02:59:16.825Z,28.03
2018-11-28T03:02:21.353Z,29.13
2018-11-28T03:05:25.903Z,29.77
2018-11-28T03:08:30.549Z,34.40
2018-11-28T03:11:35.199Z,28.30
2018-11-28T03:14:39.774Z,29.93
2018-11-28T03:17:44.284Z,32.63
2018-11-28T03:20:48.921Z,26.40
2018-11-28T03:23:53.618Z,27.07
2018-11-28T03:26:58.160Z,30.80
2018-11-28T03:30:02.766Z,28.47
2018-11-28T03:33:07.481Z,27.33
2018-11-28T03:36:12.259Z,30.33
2018-11-28T03:39:16.879Z,32.90
2018-11-28T03:42:21.415Z,31.10
2018-11-28T03:45:26.003Z,31.77
2018-11-28T03:48:30.615Z,31.90
2018-11-28T03:51:35.140Z,29.43
2018-11-28T03:54:39.762Z,30.00
2018-11-28T03:57:46.171Z,31.37
2018-11-28T04:00:50.907Z,38.90
2018-11-28T04:03:55.521Z,36.33
2018-11-28T04:07:00.081Z,31.40
2018-11-28T04:10:08.073Z,33.77
2018-11-28T04:13:12.634Z,31.73
2018-11-28T04:16:17.186Z,30.23
2018-11-28T04:19:21.841Z,33.33
2018-11-28T04:22:26.426Z,27.87
2018-11-28T04:25:31.007Z,29.77
2018-11-28T04:28:35.627Z,30.90
2018-11-28T04:31:40.351Z,30.37
2018-11-28T04:34:44.946Z,35.40
2018-11-28T04:37:49.474Z,33.10
2018-11-28T04:40:54.068Z,33.17
2018-11-28T04:43:58.680Z,30.43
2018-11-28T04:47:03.220Z,33.33
2018-11-28T04:50:09.923Z,30.80
2018-11-28T04:53:14.386Z,30.80
2018-11-28T04:56:19.095Z,29.83
2018-11-28T04:59:23.741Z,33.30
2018-11-28T05:02:28.502Z,32.90
2018-11-28T05:05:33.019Z,31.20
2018-11-28T05:08:37.644Z,28.77
2018-11-28T05:11:42.346Z,32.63
2018-11-28T05:14:47.007Z,34.50
2018-11-28T05:17:57.418Z,34.00
2018-11-28T05:21:02.149Z,31.10
2018-11-28T05:24:06.808Z,32.60
2018-11-28T05:27:11.461Z,33.13
2018-11-28T05:30:19.330Z,33.13
2018-11-28T05:33:24.070Z,33.67
2018-11-28T05:36:28.614Z,31.97
2018-11-28T05:39:33.246Z,30.00
2018-11-28T05:42:37.924Z,33.03
2018-11-28T05:45:42.451Z,32.07
2018-11-28T05:48:47.021Z,34.07
2018-11-28T05:51:51.644Z,31.83
2018-11-28T05:54:56.404Z,32.90
2018-11-28T05:58:01.054Z,36.90
2018-11-28T06:01:05.640Z,30.17
2018-11-28T06:04:10.287Z,36.63
2018-11-28T06:07:21.640Z,31.53
2018-11-28T06:10:26.239Z,32.73
2018-11-28T06:13:30.905Z,34.53
2018-11-28T06:16:35.969Z,33.03
2018-11-28T06:19:40.608Z,31.93
2018-11-28T06:22:45.311Z,35.70
2018-11-28T06:25:50.004Z,35.20
2018-11-28T06:28:54.669Z,38.83
2018-11-28T06:31:59.241Z,32.70
2018-11-28T06:35:03.757Z,37.40
2018-11-28T06:38:08.367Z,40.30
2018-11-28T06:41:12.885Z,36.47
2018-11-28T06:44:17.641Z,36.57
2018-11-28T06:47:22.214Z,38.47
2018-11-28T06:50:26.884Z,42.90
2018-11-28T06:53:31.432Z,38.80
2018-11-28T06:56:36.012Z,42.53
2018-11-28T06:59:40.795Z,36.30
2018-11-28T07:02:45.562Z,41.97
2018-11-28T07:05:50.250Z,37.37
2018-11-28T07:08:54.979Z,34.73
2018-11-28T07:11:59.525Z,33.73
2018-11-28T07:15:04.322Z,32.07
2018-11-28T07:18:25.687Z,33.70
2018-11-28T07:21:30.415Z,35.80
2018-11-28T07:24:34.942Z,33.90
2018-11-28T07:27:44.823Z,33.07
2018-11-28T07:30:44.194Z,32.87
2018-11-28T07:33:48.861Z,34.87
2018-11-28T07:36:53.900Z,37.70
2018-11-28T07:39:58.529Z,36.53
2018-11-28T07:43:13.870Z,31.70
2018-11-28T07:46:18.436Z,34.37
2018-11-28T07:49:23.166Z,35.70
2018-11-28T07:52:27.767Z,37.63
2018-11-28T07:55:32.368Z,35.43
2018-11-28T07:58:36.919Z,36.97
2018-11-28T08:01:41.572Z,39.73
2018-11-28T08:04:46.123Z,35.17
2018-11-28T08:07:50.729Z,35.77
2018-11-28T08:10:55.322Z,33.47
2018-11-28T08:13:59.991Z,34.50
2018-11-28T08:17:04.699Z,35.97
2018-11-28T08:20:09.407Z,36.67
2018-11-28T08:23:13.982Z,38.63
2018-11-28T08:26:18.525Z,39.90
2018-11-28T08:29:23.100Z,40.73
2018-11-28T08:32:27.678Z,37.80
2018-11-28T08:35:32.211Z,37.80
2018-11-28T08:38:36.732Z,41.23
2018-11-28T08:41:41.362Z,35.77
2018-11-28T08:44:46.098Z,40.60
2018-11-28T08:47:52.530Z,37.83
2018-11-28T08:50:57.236Z,38.50
2018-11-28T08:54:01.796Z,38.37
2018-11-28T08:57:06.541Z,42.77
2018-11-28T09:00:16.903Z,42.40
2018-11-28T09:03:21.429Z,37.20
2018-11-28T09:06:26.008Z,44.17
2018-11-28T09:09:30.684Z,45.20
2018-11-28T09:12:35.333Z,37.87
2018-11-28T09:15:40.578Z,45.00
2018-11-28T09:18:47.793Z,44.33
2018-11-28T09:21:52.364Z,44.00
2018-11-28T09:24:56.905Z,42.23
2018-11-28T09:28:01.664Z,37.93
2018-11-28T09:31:06.249Z,39.70
2018-11-28T09:34:10.905Z,41.23
2018-11-28T09:37:15.466Z,38.47
2018-11-28T09:40:25.667Z,38.43
2018-11-28T09:43:30.298Z,37.03
2018-11-28T09:46:34.969Z,38.13
2018-11-28T09:49:39.487Z,36.33
2018-11-28T09:52:44.111Z,34.47
2018-11-28T09:55:48.582Z,36.13
2018-11-28T09:58:53.133Z,33.90
2018-11-28T10:01:57.777Z,35.27
2018-11-28T10:05:03.015Z,32.63
2018-11-28T10:08:07.029Z,27.53
2018-11-28T10:11:12.129Z,33.27
2018-11-28T10:14:16.661Z,28.57
2018-11-28T10:17:21.299Z,33.80
2018-11-28T10:20:25.793Z,31.73
2018-11-28T10:23:30.328Z,27.47
2018-11-28T10:26:34.899Z,29.70
2018-11-28T10:29:39.421Z,30.13
2018-11-28T10:32:44.033Z,28.43
2018-11-28T10:35:48.629Z,27.43
2018-11-28T10:38:53.194Z,26.33
2018-11-28T10:41:57.822Z,25.50
2018-11-28T10:45:02.349Z,26.80
2018-11-28T10:48:08.806Z,29.57
2018-11-28T10:51:13.387Z,30.10
2018-11-28T10:54:17.955Z,28.20
2018-11-28T10:57:22.467Z,32.00
2018-11-28T11:00:34.937Z,28.73
2018-11-28T11:03:44.890Z,29.20
2018-11-28T11:06:54.756Z,30.77
2018-11-28T11:10:04.676Z,25.77
2018-11-28T11:13:14.440Z,26.63
2018-11-28T11:16:24.288Z,28.17
2018-11-28T11:19:28.887Z,29.27
2018-11-28T11:22:33.857Z,31.30
2018-11-28T11:25:38.784Z,31.83
2018-11-28T11:28:43.471Z,29.73
2018-11-28T11:31:48.070Z,28.23
2018-11-28T11:34:52.701Z,27.80
2018-11-28T11:37:57.316Z,29.57
2018-11-28T11:41:01.813Z,27.80
2018-11-28T11:44:06.496Z,27.90
2018-11-28T11:47:11.128Z,28.87
2018-11-28T11:50:18.191Z,27.50
2018-11-28T11:53:22.850Z,30.30
2018-11-28T11:56:27.436Z,26.20
2018-11-28T11:59:32.029Z,29.60
2018-11-28T12:02:36.553Z,32.27
2018-11-28T12:05:46.518Z,27.80
2018-11-28T12:08:51.006Z,29.60
2018-11-28T12:11:55.529Z,27.73
2018-11-28T12:15:00.265Z,27.67
2018-11-28T12:18:05.008Z,26.97
2018-11-28T12:21:09.576Z,27.97
2018-11-28T12:24:14.205Z,27.07
2018-11-28T12:27:18.774Z,32.60
2018-11-28T12:30:23.510Z,30.83
2018-11-28T12:33:28.195Z,30.33
2018-11-28T12:36:32.746Z,31.97
2018-11-28T12:39:38.206Z,37.43
2018-11-28T12:42:45.534Z,28.73
2018-11-28T12:45:51.461Z,31.23
2018-11-28T12:48:56.110Z,31.53
2018-11-28T12:52:00.723Z,30.73
2018-11-28T12:55:05.519Z,31.97
2018-11-28T12:58:16.038Z,32.33
2018-11-28T13:01:20.568Z,29.00
2018-11-28T13:04:25.389Z,32.00
2018-11-28T13:07:30.054Z,28.50
2018-11-28T13:10:36.786Z,32.33
2018-11-28T13:13:41.357Z,34.73
2018-11-28T13:16:46.009Z,33.23
2018-11-28T13:19:50.678Z,29.17
2018-11-28T13:22:56.539Z,32.47
2018-11-28T13:26:01.101Z,31.23
2018-11-28T13:29:06.472Z,29.37
2018-11-28T13:32:11.286Z,32.90
2018-11-28T13:35:22.305Z,33.37
2018-11-28T13:38:26.943Z,31.20
2018-11-28T13:41:31.528Z,36.47
2018-11-28T13:44:36.197Z,34.33
2018-11-28T13:47:41.319Z,42.43
2018-11-28T13:50:46.537Z,42.33
2018-11-28T13:53:51.216Z,36.37
2018-11-28T13:56:58.720Z,33.30
2018-11-28T14:00:02.479Z,32.13
2018-11-28T14:03:07.326Z,31.73
2018-11-28T14:06:12.061Z,34.87
2018-11-28T14:09:17.618Z,29.43
2018-11-28T14:12:22.518Z,31.70
2018-11-28T14:15:27.287Z,32.70
2018-11-28T14:18:32.052Z,34.10
2018-11-28T14:21:36.829Z,35.83
2018-11-28T14:24:41.470Z,31.63
2018-11-28T14:27:46.326Z,32.77
2018-11-28T14:30:51.250Z,75.60
2018-11-28T14:33:56.039Z,32.60
2018-11-28T14:37:00.637Z,30.90
2018-11-28T14:40:08.913Z,28.93
2018-11-28T14:43:13.880Z,34.20
2018-11-28T14:46:18.510Z,32.10
2018-11-28T14:49:23.232Z,32.33
2018-11-28T14:52:27.822Z,32.50
2018-11-28T14:55:36.926Z,31.57
2018-11-28T14:58:41.748Z,32.40
2018-11-28T15:01:46.290Z,33.83
2018-11-28T15:04:51.328Z,36.13
2018-11-28T15:08:10.683Z,35.10
2018-11-28T15:11:16.030Z,34.23
2018-11-28T15:14:20.553Z,32.73
2018-11-28T15:17:25.391Z,36.00
2018-11-28T15:20:30.007Z,27.93
2018-11-28T15:23:34.630Z,31.13
2018-11-28T15:26:39.345Z,32.17
2018-11-28T15:29:44.100Z,29.57
2018-11-28T15:32:48.776Z,34.87
2018-11-28T15:35:53.553Z,32.00
2018-11-28T15:38:58.129Z,31.17
2018-11-28T15:42:02.768Z,33.67
2018-11-28T15:45:09.331Z,36.33
2018-11-28T15:48:14.343Z,32.43
2018-11-28T15:51:18.848Z,35.80
2018-11-28T15:54:23.418Z,35.13
2018-11-28T15:57:28.031Z,29.63
2018-11-28T16:00:32.797Z,30.93
2018-11-28T16:03:37.418Z,33.00
2018-11-28T16:06:41.998Z,34.93
2018-11-28T16:09:51.712Z,37.38
2018-11-28T16:12:56.689Z,37.80
2018-11-28T16:16:01.491Z,39.90
2018-11-28T16:19:06.571Z,35.30
2018-11-28T16:22:11.441Z,33.80
2018-11-28T16:25:16.291Z,35.17
2018-11-28T16:28:21.108Z,31.33
2018-11-28T16:31:25.956Z,36.97
2018-11-28T16:34:30.658Z,32.27
2018-11-28T16:37:35.304Z,34.57
2018-11-28T16:40:40.253Z,33.70
2018-11-28T16:43:44.853Z,35.30
2018-11-28T16:46:49.381Z,31.47
2018-11-28T16:49:53.965Z,32.67
2018-11-28T16:52:58.635Z,36.23
2018-11-28T16:56:03.352Z,37.23
2018-11-28T16:59:08.777Z,33.70
2018-11-28T17:02:13.505Z,32.83
2018-11-28T17:05:20.860Z,37.53
2018-11-28T17:08:25.415Z,33.00
2018-11-28T17:11:30.183Z,43.40
2018-11-28T17:14:36.405Z,37.97
2018-11-28T17:17:47.673Z,38.77
2018-11-28T17:20:52.230Z,39.97
2018-11-28T17:23:56.972Z,38.07
2018-11-28T17:27:01.816Z,41.07
2018-11-28T17:30:10.939Z,39.50
2018-11-28T17:33:15.552Z,41.00
2018-11-28T17:36:20.135Z,37.80
2018-11-28T17:39:24.708Z,36.17
2018-11-28T17:42:29.315Z,33.77
2018-11-28T17:45:34.091Z,38.47
2018-11-28T17:48:39.259Z,33.63
2018-11-28T17:51:43.818Z,36.90
2018-11-28T17:54:48.480Z,34.80
2018-11-28T17:57:53.064Z,37.43
2018-11-28T18:00:57.850Z,36.60
2018-11-28T18:04:02.382Z,44.47
2018-11-28T18:07:07.558Z,41.20
2018-11-28T18:10:17.272Z,48.90
2018-11-28T18:13:21.838Z,51.77
2018-11-28T18:16:29.500Z,54.83
2018-11-28T18:19:31.367Z,46.90
2018-11-28T18:22:35.878Z,42.87
2018-11-28T18:25:41.599Z,39.67
2018-11-28T18:28:46.153Z,43.60
2018-11-28T18:31:50.772Z,38.57
2018-11-28T18:34:55.290Z,39.73
2018-11-28T18:37:59.958Z,37.93
2018-11-28T18:41:08.032Z,45.37
2018-11-28T18:44:12.722Z,37.63
2018-11-28T18:47:17.294Z,43.03
2018-11-28T18:50:22.015Z,37.00
2018-11-28T18:53:26.598Z,38.27
2018-11-28T18:56:31.216Z,42.30
2018-11-28T18:59:35.753Z,40.07
2018-11-28T19:02:40.897Z,38.60
2018-11-28T19:05:45.442Z,38.63
2018-11-28T19:08:50.159Z,38.00
2018-11-28T19:11:54.807Z,40.97
2018-11-28T19:14:59.442Z,38.43
2018-11-28T19:18:04.130Z,43.03
2018-11-28T19:21:08.900Z,41.80
2018-11-28T19:24:13.511Z,43.67
2018-11-28T19:27:18.107Z,42.37
2018-11-28T19:30:36.018Z,38.17
2018-11-28T19:33:40.772Z,42.00
2018-11-28T19:36:45.426Z,46.73
2018-11-28T19:39:50.068Z,41.67
2018-11-28T19:42:54.802Z,40.03
2018-11-28T19:45:59.744Z,41.57
2018-11-28T19:49:04.377Z,43.33
2018-11-28T19:52:09.141Z,47.37
2018-11-28T19:55:13.895Z,49.47
2018-11-28T19:58:18.682Z,41.60
2018-11-28T20:01:23.385Z,43.67
2018-11-28T20:04:28.061Z,40.80
2018-11-28T20:07:32.774Z,38.83
2018-11-28T20:10:37.584Z,44.20
2018-11-28T20:13:43.711Z,43.30
2018-11-28T20:16:53.380Z,39.60
2018-11-28T20:19:59.270Z,42.63
2018-11-28T20:23:04.064Z,45.97
2018-11-28T20:26:08.819Z,47.33
2018-11-28T20:29:14.446Z,39.57
2018-11-28T20:32:19.133Z,45.57
2018-11-28T20:35:23.939Z,44.70
2018-11-28T20:38:33.068Z,44.60
2018-11-28T20:41:37.889Z,42.23
2018-11-28T20:44:42.609Z,41.60
2018-11-28T20:47:47.384Z,44.00
2018-11-28T20:50:53.001Z,43.67
2018-11-28T20:53:57.619Z,43.17
2018-11-28T20:57:02.231Z,43.27
2018-11-28T21:00:11.742Z,42.80
2018-11-28T21:03:16.366Z,42.87
2018-11-28T21:06:21.076Z,55.67
2018-11-28T21:09:25.965Z,47.17
2018-11-28T21:12:30.524Z,46.90
2018-11-28T21:15:35.059Z,48.40
2018-11-28T21:18:39.816Z,49.97
2018-11-28T21:21:44.515Z,48.77
2018-11-28T21:24:49.089Z,46.67
2018-11-28T21:27:53.750Z,51.20
2018-11-28T21:30:58.486Z,60.33
2018-11-28T21:34:03.152Z,58.97
2018-11-28T21:37:07.745Z,51.97
2018-11-28T21:40:13.050Z,45.27
2018-11-28T21:43:17.612Z,50.27
2018-11-28T21:46:22.246Z,47.43
2018-11-28T21:49:28.376Z,43.07
2018-11-28T21:52:33.076Z,48.73
2018-11-28T21:55:37.685Z,43.63
2018-11-28T21:58:42.276Z,49.47
2018-11-28T22:01:46.903Z,45.43
2018-11-28T22:04:51.552Z,48.97
2018-11-28T22:07:56.145Z,48.83
2018-11-28T22:11:00.695Z,47.23
2018-11-28T22:14:06.213Z,46.27
2018-11-28T22:17:10.660Z,49.03
2018-11-28T22:20:15.955Z,46.97
2018-11-28T22:23:20.461Z,47.77
2018-11-28T22:26:24.999Z,43.27
2018-11-28T22:29:29.717Z,45.63
2018-11-28T22:32:34.442Z,46.97
2018-11-28T22:35:39.175Z,47.50
2018-11-28T22:38:43.928Z,48.77
2018-11-28T22:41:48.610Z,44.97
2018-11-28T22:44:53.178Z,47.47
2018-11-28T22:47:57.694Z,50.93
2018-11-28T22:51:02.238Z,44.43
2018-11-28T22:54:06.861Z,48.10
2018-11-28T22:57:11.448Z,47.67
2018-11-28T23:00:29.140Z,50.60
2018-11-28T23:03:33.703Z,47.47
2018-11-28T23:06:38.305Z,45.17
2018-11-28T23:09:42.906Z,49.03
2018-11-28T23:12:47.502Z,45.43
2018-11-28T23:15:52.022Z,43.60
2018-11-28T23:18:57.431Z,47.57
2018-11-28T23:22:01.997Z,46.53
2018-11-28T23:25:10.724Z,48.87
2018-11-28T23:28:15.457Z,53.90
2018-11-28T23:31:19.972Z,50.27
2018-11-28T23:34:24.589Z,46.40
2018-11-28T23:37:29.198Z,47.97
2018-11-28T23:40:33.844Z,51.47
2018-11-28T23:43:38.539Z,43.13
2018-11-28T23:46:43.231Z,47.97
2018-11-28T23:49:47.803Z,48.80
2018-11-28T23:52:53.863Z,48.47
2018-11-28T23:55:58.444Z,50.07
2018-11-28T23:59:03.106Z,50.77
